createdAt,value
2019-04-03T00:00:40.942Z,44.87
2019-04-03T00:03:11.184Z,44.74
2019-04-03T00:05:41.318Z,44.41
2019-04-03T00:08:12.772Z,45.45
2019-04-03T00:10:43.142Z,45.80
2019-04-03T00:13:13.735Z,46.24
2019-04-03T00:15:44.774Z,46.67
2019-04-03T00:18:16.559Z,47.16
2019-04-03T00:20:49.171Z,48.04
2019-04-03T00:23:20.606Z,48.10
2019-04-03T00:25:52.836Z,46.51
2019-04-03T00:28:23.167Z,47.63
2019-04-03T00:30:53.406Z,47.88
2019-04-03T00:33:23.938Z,48.67
2019-04-03T00:35:54.492Z,49.24
2019-04-03T00:38:25.741Z,46.96
2019-04-03T00:40:57.049Z,49.28
2019-04-03T00:43:27.261Z,47.46
2019-04-03T00:45:57.511Z,48.59
2019-04-03T00:48:27.645Z,48.96
2019-04-03T00:50:58.048Z,50.05
2019-04-03T00:53:28.359Z,50.83
2019-04-03T00:55:58.765Z,50.38
2019-04-03T00:58:39.897Z,51.92
2019-04-03T01:01:11.860Z,53.28
2019-04-03T01:03:42.203Z,53.00
2019-04-03T01:06:12.613Z,53.39
2019-04-03T01:08:42.932Z,53.68
2019-04-03T01:11:13.396Z,54.78
2019-04-03T01:13:43.875Z,53.89
2019-04-03T01:16:14.187Z,55.04
2019-04-03T01:18:45.454Z,53.99
2019-04-03T01:21:15.865Z,53.11
2019-04-03T01:23:46.120Z,53.09
2019-04-03T01:26:16.257Z,50.47
2019-04-03T01:28:46.367Z,53.49
2019-04-03T01:31:16.632Z,52.41
2019-04-03T01:33:47.185Z,54.25
2019-04-03T01:36:18.219Z,54.86
2019-04-03T01:38:49.806Z,56.05
2019-04-03T01:41:21.676Z,54.70
2019-04-03T01:43:53.989Z,56.83
2019-04-03T01:46:24.336Z,54.53
2019-04-03T01:48:58.024Z,53.75
2019-04-03T01:51:29.691Z,52.52
2019-04-03T01:54:02.311Z,51.91
2019-04-03T01:56:32.017Z,51.47
2019-04-03T01:59:02.627Z,53.79
2019-04-03T02:01:33.318Z,54.00
2019-04-03T02:04:04.480Z,55.42
2019-04-03T02:06:34.847Z,55.98
2019-04-03T02:09:08.047Z,55.64
2019-04-03T02:11:38.799Z,56.05
2019-04-03T02:14:09.240Z,55.85
2019-04-03T02:16:39.562Z,57.64
2019-04-03T02:19:09.871Z,58.40
2019-04-03T02:21:40.022Z,60.14
2019-04-03T02:24:10.325Z,59.82
2019-04-03T02:26:41.687Z,59.87
2019-04-03T02:29:11.898Z,62.67
2019-04-03T02:31:42.266Z,64.82
2019-04-03T02:34:13.776Z,66.00
2019-04-03T02:36:45.415Z,68.40
2019-04-03T02:39:18.355Z,68.61
2019-04-03T02:41:48.450Z,69.95
2019-04-03T02:44:20.062Z,70.65
2019-04-03T02:46:50.502Z,71.31
2019-04-03T02:49:20.928Z,70.71
2019-04-03T02:51:53.024Z,69.26
2019-04-03T02:54:28.826Z,71.77
2019-04-03T02:56:59.525Z,72.80
2019-04-03T02:59:29.799Z,72.91
2019-04-03T03:02:00.413Z,74.31
2019-04-03T03:04:30.767Z,75.57
2019-04-03T03:07:03.892Z,76.68
2019-04-03T03:09:33.532Z,77.58
2019-04-03T03:12:04.067Z,77.66
2019-04-03T03:14:38.230Z,78.09
2019-04-03T03:17:07.156Z,78.42
2019-04-03T03:19:38.083Z,78.96
2019-04-03T03:22:09.222Z,79.19
2019-04-03T03:24:41.283Z,79.56
2019-04-03T03:27:12.269Z,79.72
2019-04-03T03:29:43.954Z,79.64
2019-04-03T03:32:19.902Z,80.26
2019-04-03T03:34:54.706Z,80.13
2019-04-03T03:37:18.999Z,79.66
2019-04-03T03:39:49.539Z,79.97
2019-04-03T03:42:20.231Z,81.29
2019-04-03T03:44:50.545Z,82.61
2019-04-03T03:47:20.911Z,82.08
2019-04-03T03:49:51.192Z,82.17
2019-04-03T03:52:22.195Z,82.35
2019-04-03T03:54:52.693Z,82.00
2019-04-03T03:57:23.308Z,81.92
2019-04-03T03:59:53.695Z,82.19
2019-04-03T04:02:24.027Z,83.47
2019-04-03T04:04:54.563Z,84.40
2019-04-03T04:07:25.139Z,84.65
2019-04-03T04:09:55.492Z,84.65
2019-04-03T04:12:25.894Z,84.86
2019-04-03T04:14:57.216Z,84.65
2019-04-03T04:17:29.168Z,84.15
2019-04-03T04:20:03.068Z,84.63
2019-04-03T04:22:32.173Z,84.99
2019-04-03T04:25:05.346Z,85.29
2019-04-03T04:27:37.549Z,85.77
2019-04-03T04:30:07.815Z,85.55
2019-04-03T04:32:38.001Z,86.34
2019-04-03T04:35:10.732Z,86.37
2019-04-03T04:37:40.810Z,86.40
2019-04-03T04:40:11.595Z,87.53
2019-04-03T04:42:41.716Z,87.93
2019-04-03T04:45:12.481Z,88.50
2019-04-03T04:47:45.534Z,88.26
2019-04-03T04:50:24.261Z,87.92
2019-04-03T04:52:54.196Z,87.78
2019-04-03T04:55:24.560Z,87.74
2019-04-03T04:57:54.768Z,87.70
2019-04-03T05:00:25.097Z,87.80
2019-04-03T05:02:55.573Z,87.48
2019-04-03T05:05:27.414Z,87.50
2019-04-03T05:07:59.694Z,88.00
2019-04-03T05:18:30.835Z,87.84
2019-04-03T05:21:01.542Z,87.84
2019-04-03T05:23:31.959Z,88.28
2019-04-03T05:26:02.364Z,88.77
2019-04-03T05:28:34.189Z,88.88
2019-04-03T05:31:06.067Z,88.64
2019-04-03T05:33:37.298Z,88.28
2019-04-03T05:36:08.653Z,88.39
2019-04-03T05:38:38.976Z,88.57
2019-04-03T05:41:09.190Z,88.85
2019-04-03T05:43:39.352Z,88.82
2019-04-03T05:46:09.768Z,89.27
2019-04-03T05:48:40.073Z,89.08
2019-04-03T05:51:10.496Z,89.18
2019-04-03T05:53:41.031Z,88.56
2019-04-03T05:56:12.405Z,88.57
2019-04-03T05:58:54.466Z,88.12
2019-04-03T06:01:16.282Z,88.96
2019-04-03T06:03:46.503Z,89.92
2019-04-03T06:06:16.812Z,89.44
2019-04-03T06:08:50.885Z,89.44
2019-04-03T06:11:20.852Z,90.36
2019-04-03T06:13:51.813Z,90.63
2019-04-03T06:16:24.564Z,90.01
2019-04-03T06:18:56.997Z,88.95
2019-04-03T06:21:27.714Z,88.56
2019-04-03T06:23:58.280Z,88.41
2019-04-03T06:26:29.022Z,88.13
2019-04-03T06:28:59.219Z,87.61
2019-04-03T06:31:29.618Z,86.50
2019-04-03T06:34:00.265Z,86.63
2019-04-03T06:36:31.076Z,86.74
2019-04-03T06:39:01.761Z,84.96
2019-04-03T06:41:32.368Z,84.19
2019-04-03T06:44:04.061Z,85.09
2019-04-03T06:46:34.780Z,84.37
2019-04-03T06:49:08.250Z,84.25
2019-04-03T06:51:37.645Z,84.49
2019-04-03T06:54:08.375Z,83.84
2019-04-03T06:56:40.523Z,83.20
2019-04-03T06:59:11.532Z,83.68
2019-04-03T07:01:41.892Z,83.47
2019-04-03T07:04:12.405Z,82.45
2019-04-03T07:06:44.738Z,82.10
2019-04-03T07:09:22.367Z,81.42
2019-04-03T07:11:47.108Z,81.17
2019-04-03T07:14:17.592Z,80.21
2019-04-03T07:16:47.767Z,79.96
2019-04-03T07:19:17.983Z,78.93
2019-04-03T07:21:48.328Z,77.40
2019-04-03T07:24:18.731Z,75.78
2019-04-03T07:26:49.407Z,74.64
2019-04-03T07:29:19.710Z,71.58
2019-04-03T07:31:51.026Z,68.73
2019-04-03T07:34:21.216Z,69.60
2019-04-03T07:36:51.386Z,68.77
2019-04-03T07:39:21.714Z,68.09
2019-04-03T07:41:54.411Z,65.43
2019-04-03T07:44:24.697Z,59.57
2019-04-03T07:46:55.689Z,58.73
2019-04-03T07:49:25.942Z,54.03
2019-04-03T07:51:56.582Z,53.72
2019-04-03T07:54:27.266Z,54.39
2019-04-03T07:56:58.187Z,54.72
2019-04-03T07:59:29.574Z,54.10
2019-04-03T08:02:00.014Z,52.46
2019-04-03T08:04:30.362Z,50.35
2019-04-03T08:07:00.541Z,49.31
2019-04-03T08:09:30.670Z,51.03
2019-04-03T08:12:03.437Z,52.99
2019-04-03T08:14:32.995Z,54.43
2019-04-03T08:17:03.397Z,55.59
2019-04-03T08:19:37.035Z,54.10
2019-04-03T08:22:07.393Z,51.64
2019-04-03T08:24:37.932Z,53.55
2019-04-03T08:27:09.655Z,50.56
2019-04-03T08:29:39.879Z,52.86
2019-04-03T08:32:10.611Z,53.03
2019-04-03T08:34:42.371Z,53.84
2019-04-03T08:37:12.569Z,53.82
2019-04-03T08:39:43.413Z,55.71
2019-04-03T08:42:14.137Z,55.62
2019-04-03T08:44:44.853Z,55.25
2019-04-03T08:47:15.387Z,55.09
2019-04-03T08:49:45.658Z,55.01
2019-04-03T08:52:16.451Z,53.22
2019-04-03T08:54:46.988Z,53.58
2019-04-03T08:57:20.522Z,53.51
2019-04-03T08:59:50.092Z,52.89
2019-04-03T09:02:20.588Z,53.10
2019-04-03T09:04:51.204Z,54.08
2019-04-03T09:07:24.636Z,54.15
2019-04-03T09:09:54.455Z,53.90
2019-04-03T09:12:25.384Z,55.23
2019-04-03T09:14:57.034Z,55.03
2019-04-03T09:17:28.514Z,55.41
2019-04-03T09:19:58.905Z,55.38
2019-04-03T09:22:30.491Z,55.23
2019-04-03T09:25:01.033Z,55.97
2019-04-03T09:27:31.209Z,54.00
2019-04-03T09:30:01.463Z,53.11
2019-04-03T09:32:33.349Z,52.61
2019-04-03T09:35:11.526Z,52.19
2019-04-03T09:37:41.732Z,49.10
2019-04-03T09:40:12.193Z,47.42
2019-04-03T09:42:42.894Z,48.75
2019-04-03T09:45:13.460Z,45.83
2019-04-03T09:47:44.594Z,43.84
2019-04-03T09:50:15.427Z,42.65
2019-04-03T09:52:49.386Z,42.80
2019-04-03T09:55:18.697Z,42.30
2019-04-03T09:57:49.007Z,40.70
2019-04-03T10:00:19.870Z,37.66
2019-04-03T10:02:51.562Z,34.72
2019-04-03T10:05:22.277Z,31.67
2019-04-03T10:07:52.790Z,31.13
2019-04-03T10:10:25.659Z,31.29
2019-04-03T10:12:55.454Z,34.20
2019-04-03T10:15:25.966Z,33.72
2019-04-03T10:17:56.713Z,36.13
2019-04-03T10:20:27.548Z,37.38
2019-04-03T10:22:57.985Z,36.74
2019-04-03T10:25:28.641Z,38.70
2019-04-03T10:27:59.569Z,41.29
2019-04-03T10:30:30.178Z,40.91
2019-04-03T10:33:01.038Z,40.39
2019-04-03T10:35:32.837Z,42.28
2019-04-03T10:38:03.176Z,40.89
2019-04-03T10:40:33.399Z,41.89
2019-04-03T10:43:06.017Z,41.58
2019-04-03T10:45:35.900Z,42.66
2019-04-03T10:48:07.879Z,41.04
2019-04-03T10:50:38.960Z,38.25
2019-04-03T10:53:09.198Z,37.30
2019-04-03T10:55:39.503Z,35.36
2019-04-03T10:58:09.907Z,32.19
2019-04-03T11:00:40.791Z,28.81
2019-04-03T11:03:12.128Z,28.81
2019-04-03T11:05:42.656Z,27.62
2019-04-03T11:08:14.088Z,26.22
2019-04-03T11:10:44.490Z,26.76
2019-04-03T11:13:14.751Z,26.30
2019-04-03T11:15:45.152Z,24.40
2019-04-03T11:18:15.972Z,23.27
2019-04-03T11:20:46.150Z,24.21
2019-04-03T11:23:16.374Z,25.27
2019-04-03T11:25:47.615Z,24.71
2019-04-03T11:28:18.445Z,22.88
2019-04-03T11:30:51.125Z,21.42
2019-04-03T11:33:20.871Z,20.59
2019-04-03T11:35:53.676Z,19.54
2019-04-03T11:38:27.963Z,18.66
2019-04-03T11:40:55.280Z,18.77
2019-04-03T11:43:25.674Z,18.06
2019-04-03T11:45:57.193Z,17.36
2019-04-03T11:48:27.755Z,18.07
2019-04-03T11:50:58.289Z,16.57
2019-04-03T11:53:28.454Z,15.65
2019-04-03T11:55:58.905Z,15.79
2019-04-03T11:58:29.352Z,16.95
2019-04-03T12:00:59.994Z,16.95
2019-04-03T12:03:30.420Z,18.13
2019-04-03T12:06:00.948Z,17.31
2019-04-03T12:08:31.615Z,17.43
2019-04-03T12:11:01.948Z,16.56
2019-04-03T12:13:32.306Z,17.31
2019-04-03T12:16:02.879Z,16.31
2019-04-03T12:18:34.234Z,16.31
2019-04-03T12:21:05.694Z,16.46
2019-04-03T12:23:38.772Z,15.58
2019-04-03T12:26:10.511Z,15.44
2019-04-03T12:28:40.104Z,14.40
2019-04-03T12:31:10.540Z,15.36
2019-04-03T12:33:51.978Z,15.92
2019-04-03T12:36:14.443Z,15.76
2019-04-03T12:38:44.988Z,16.09
2019-04-03T12:41:15.592Z,16.75
2019-04-03T12:43:46.132Z,16.00
2019-04-03T12:46:21.031Z,17.01
2019-04-03T12:48:51.463Z,19.33
2019-04-03T12:51:21.954Z,19.01
2019-04-03T12:53:52.633Z,19.53
2019-04-03T12:56:25.231Z,19.36
2019-04-03T12:58:55.340Z,19.80
2019-04-03T13:01:27.640Z,21.35
2019-04-03T13:03:58.225Z,21.71
2019-04-03T13:06:28.634Z,22.67
2019-04-03T13:08:58.903Z,22.79
2019-04-03T13:11:29.761Z,24.70
2019-04-03T13:14:02.020Z,24.44
2019-04-03T13:16:32.355Z,25.40
2019-04-03T13:19:03.110Z,25.62
2019-04-03T13:21:33.861Z,26.35
2019-04-03T13:24:04.334Z,29.39
2019-04-03T13:26:34.916Z,29.39
2019-04-03T13:29:08.619Z,30.35
2019-04-03T13:31:38.007Z,34.99
2019-04-03T13:34:11.212Z,34.77
2019-04-03T13:36:41.043Z,34.89
2019-04-03T13:39:11.987Z,36.31
2019-04-03T13:41:43.334Z,36.30
2019-04-03T13:44:14.504Z,36.80
2019-04-03T13:46:45.366Z,37.11
2019-04-03T13:49:18.087Z,37.16
2019-04-03T13:51:47.939Z,36.58
2019-04-03T13:54:18.479Z,35.00
2019-04-03T13:56:49.004Z,32.89
2019-04-03T13:59:19.339Z,32.61
2019-04-03T14:01:50.861Z,32.34
2019-04-03T14:04:22.931Z,31.46
2019-04-03T14:06:53.920Z,32.25
2019-04-03T14:09:24.303Z,33.57
2019-04-03T14:11:54.760Z,35.21
2019-04-03T14:14:25.771Z,35.52
2019-04-03T14:16:56.410Z,35.46
2019-04-03T14:19:26.784Z,37.43
2019-04-03T14:21:59.986Z,37.99
2019-04-03T14:24:39.611Z,40.36
2019-04-03T14:27:01.649Z,39.37
2019-04-03T14:29:32.594Z,38.71
2019-04-03T14:32:03.201Z,39.88
2019-04-03T14:34:33.745Z,41.13
2019-04-03T14:37:04.168Z,42.34
2019-04-03T14:39:34.394Z,43.40
2019-04-03T14:42:07.166Z,43.40
2019-04-03T14:44:38.150Z,43.10
2019-04-03T14:47:09.998Z,45.18
2019-04-03T14:49:40.674Z,43.75
2019-04-03T14:52:10.984Z,44.32
2019-04-03T14:54:41.472Z,44.59
2019-04-03T14:57:19.254Z,43.50
2019-04-03T14:59:44.390Z,43.96
2019-04-03T15:02:14.780Z,45.85
2019-04-03T15:04:45.324Z,46.16
2019-04-03T15:07:17.788Z,46.60
2019-04-03T15:09:48.133Z,48.06
2019-04-03T15:12:21.522Z,48.69
2019-04-03T15:14:52.235Z,50.03
2019-04-03T15:17:23.999Z,51.04
2019-04-03T15:19:56.630Z,51.34
2019-04-03T15:22:27.957Z,52.95
2019-04-03T15:24:58.441Z,53.63
2019-04-03T15:27:29.684Z,54.14
2019-04-03T15:30:00.314Z,53.35
2019-04-03T15:32:33.473Z,52.84
2019-04-03T15:35:04.183Z,53.25
2019-04-03T15:37:35.060Z,54.60
2019-04-03T15:40:06.305Z,54.11
2019-04-03T15:42:39.837Z,55.05
2019-04-03T15:45:09.533Z,55.22
2019-04-03T15:47:44.955Z,55.37
2019-04-03T15:50:13.079Z,57.28
2019-04-03T15:52:47.874Z,60.49
2019-04-03T15:55:16.426Z,60.69
2019-04-03T15:57:48.283Z,59.13
2019-04-03T16:00:19.435Z,60.08
2019-04-03T16:02:50.766Z,62.18
2019-04-03T16:05:21.067Z,62.85
2019-04-03T16:07:51.826Z,66.95
2019-04-03T16:10:24.227Z,68.19
2019-04-03T16:12:57.150Z,69.42
2019-04-03T16:15:27.766Z,68.84
2019-04-03T16:17:58.998Z,72.25
2019-04-03T16:20:29.926Z,73.85
2019-04-03T16:23:01.343Z,73.84
2019-04-03T16:25:32.590Z,72.48
2019-04-03T16:28:03.234Z,72.13
2019-04-03T16:30:34.145Z,72.85
2019-04-03T16:33:05.090Z,74.15
2019-04-03T16:35:37.408Z,74.31
2019-04-03T16:38:08.370Z,74.39
2019-04-03T16:40:39.484Z,74.29
2019-04-03T16:43:11.649Z,73.90
2019-04-03T16:45:42.328Z,74.40
2019-04-03T16:48:15.929Z,72.44
2019-04-03T16:50:46.309Z,73.90
2019-04-03T16:53:20.235Z,73.38
2019-04-03T16:55:50.667Z,73.00
2019-04-03T16:58:21.767Z,72.98
2019-04-03T17:00:52.584Z,73.36
2019-04-03T17:03:23.434Z,74.59
2019-04-03T17:05:54.224Z,76.01
2019-04-03T17:08:27.551Z,75.52
2019-04-03T17:10:58.013Z,75.36
2019-04-03T17:13:31.734Z,74.19
2019-04-03T17:16:02.505Z,75.69
2019-04-03T17:18:33.558Z,75.25
2019-04-03T17:21:04.014Z,76.32
2019-04-03T17:23:38.157Z,76.00
2019-04-03T17:26:09.743Z,76.35
2019-04-03T17:28:41.730Z,76.31
2019-04-03T17:31:12.820Z,76.94
2019-04-03T17:33:43.740Z,76.63
2019-04-03T17:36:14.155Z,75.80
2019-04-03T17:38:47.202Z,75.61
2019-04-03T17:41:18.192Z,75.48
2019-04-03T17:43:49.297Z,75.41
2019-04-03T17:46:20.020Z,74.94
2019-04-03T17:48:50.565Z,75.59
2019-04-03T17:51:21.084Z,76.86
2019-04-03T17:53:51.695Z,75.50
2019-04-03T17:56:22.760Z,76.56
2019-04-03T17:58:53.408Z,76.67
2019-04-03T18:01:23.916Z,75.97
2019-04-03T18:03:54.724Z,76.70
2019-04-03T18:06:27.129Z,76.35
2019-04-03T18:08:57.782Z,77.40
2019-04-03T18:11:28.456Z,77.93
2019-04-03T18:13:59.336Z,77.45
2019-04-03T18:16:30.273Z,77.95
2019-04-03T18:19:04.564Z,78.14
2019-04-03T18:21:34.226Z,78.09
2019-04-03T18:24:05.092Z,78.75
2019-04-03T18:26:35.477Z,78.62
2019-04-03T18:29:06.634Z,78.87
2019-04-03T18:31:37.851Z,79.17
2019-04-03T18:34:08.418Z,78.56
2019-04-03T18:36:38.990Z,78.50
2019-04-03T18:39:11.021Z,78.59
2019-04-03T18:41:41.758Z,78.95
2019-04-03T18:44:22.018Z,79.01
2019-04-03T18:46:44.867Z,78.86
2019-04-03T18:49:15.569Z,79.46
2019-04-03T18:51:45.984Z,79.46
2019-04-03T18:54:16.411Z,79.90
2019-04-03T18:56:46.742Z,79.61
2019-04-03T18:59:17.279Z,79.53
2019-04-03T19:01:47.905Z,81.24
2019-04-03T19:04:23.612Z,80.30
2019-04-03T19:06:55.004Z,79.75
2019-04-03T19:09:26.008Z,79.16
2019-04-03T19:12:08.016Z,79.16
2019-04-03T19:14:32.114Z,78.58
2019-04-03T19:17:02.928Z,78.75
2019-04-03T19:19:33.685Z,79.75
2019-04-03T19:22:04.666Z,79.43
2019-04-03T19:24:35.165Z,79.52
2019-04-03T19:27:05.915Z,79.61
2019-04-03T19:29:36.426Z,79.75
2019-04-03T19:32:07.005Z,79.31
2019-04-03T19:34:37.301Z,79.71
2019-04-03T19:37:07.884Z,80.03
2019-04-03T19:39:38.866Z,80.56
2019-04-03T19:42:09.695Z,80.44
2019-04-03T19:44:41.743Z,80.42
2019-04-03T19:47:12.770Z,80.71
2019-04-03T19:49:43.387Z,80.92
2019-04-03T19:52:14.248Z,81.08
2019-04-03T19:54:44.657Z,81.32
2019-04-03T19:57:15.307Z,81.77
2019-04-03T19:59:45.885Z,81.93
2019-04-03T20:02:16.106Z,81.52
2019-04-03T20:04:50.899Z,81.89
2019-04-03T20:07:21.377Z,82.30
2019-04-03T20:09:51.819Z,82.47
2019-04-03T20:12:23.495Z,81.81
2019-04-03T20:14:58.461Z,81.71
2019-04-03T20:17:26.126Z,81.82
2019-04-03T20:19:57.878Z,82.86
2019-04-03T20:22:29.162Z,82.92
2019-04-03T20:25:00.594Z,83.53
2019-04-03T20:27:31.513Z,83.23
2019-04-03T20:30:01.972Z,83.17
2019-04-03T20:32:32.264Z,82.86
2019-04-03T20:35:02.559Z,82.75
2019-04-03T20:37:33.225Z,83.10
2019-04-03T20:40:04.186Z,83.64
2019-04-03T20:42:35.007Z,83.99
2019-04-03T20:45:06.114Z,84.04
2019-04-03T20:47:36.347Z,84.26
2019-04-03T20:50:07.720Z,83.67
2019-04-03T20:52:38.340Z,83.46
2019-04-03T20:55:08.988Z,83.14
2019-04-03T20:57:39.574Z,82.54
2019-04-03T21:00:12.991Z,81.88
2019-04-03T21:02:43.296Z,81.88
2019-04-03T21:05:13.574Z,81.61
2019-04-03T21:07:43.796Z,82.25
2019-04-03T21:10:14.095Z,82.25
2019-04-03T21:12:44.763Z,82.16
2019-04-03T21:15:15.485Z,81.74
2019-04-03T21:17:45.778Z,81.84
2019-04-03T21:20:17.332Z,82.35
2019-04-03T21:22:47.670Z,81.72
2019-04-03T21:25:18.079Z,81.23
2019-04-03T21:27:48.289Z,81.96
2019-04-03T21:30:19.230Z,81.94
2019-04-03T21:32:49.336Z,80.93
2019-04-03T21:35:19.681Z,80.45
2019-04-03T21:37:49.964Z,80.85
2019-04-03T21:40:20.152Z,80.65
2019-04-03T21:42:59.588Z,80.80
2019-04-03T21:45:30.258Z,81.11
2019-04-03T21:48:00.524Z,81.36
2019-04-03T21:50:30.770Z,81.45
2019-04-03T21:53:01.036Z,82.13
2019-04-03T21:55:34.616Z,82.79
2019-04-03T21:58:04.111Z,84.35
2019-04-03T22:01:11.225Z,83.99
2019-04-03T22:03:41.560Z,83.65
2019-04-03T22:06:11.800Z,83.25
2019-04-03T22:08:42.010Z,82.91
2019-04-03T22:11:12.391Z,83.04
2019-04-03T22:13:42.633Z,83.34
2019-04-03T22:16:13.279Z,83.52
2019-04-03T22:18:43.718Z,83.94
2019-04-03T22:21:14.014Z,84.50
2019-04-03T22:23:44.158Z,85.04
2019-04-03T22:26:14.430Z,84.92
2019-04-03T22:28:46.504Z,84.93
2019-04-03T22:31:16.875Z,85.68
2019-04-03T22:33:47.153Z,85.50
2019-04-03T22:36:17.446Z,85.42
2019-04-03T22:38:47.667Z,85.41
2019-04-03T22:41:18.365Z,85.64
2019-04-03T22:43:48.662Z,85.89
2019-04-03T22:46:21.633Z,85.87
2019-04-03T22:48:50.900Z,85.90
2019-04-03T22:51:21.191Z,85.89
2019-04-03T22:53:51.558Z,86.10
2019-04-03T22:56:21.740Z,86.73
2019-04-03T22:58:52.934Z,86.47
2019-04-03T23:01:23.805Z,86.34
2019-04-03T23:03:54.170Z,86.17
2019-04-03T23:06:24.481Z,85.93
2019-04-03T23:08:54.708Z,85.97
2019-04-03T23:11:24.864Z,86.16
2019-04-03T23:13:55.123Z,86.06
2019-04-03T23:16:25.351Z,86.23
2019-04-03T23:18:56.095Z,86.53
2019-04-03T23:21:26.484Z,86.57
2019-04-03T23:23:57.913Z,86.46
2019-04-03T23:26:31.791Z,86.74
2019-04-03T23:29:00.879Z,87.24
2019-04-03T23:31:31.049Z,87.40
2019-04-03T23:34:03.223Z,87.23
2019-04-03T23:36:33.640Z,87.36
2019-04-03T23:39:05.996Z,87.48
2019-04-03T23:41:37.016Z,87.30
2019-04-03T23:44:07.150Z,87.27
2019-04-03T23:46:37.471Z,87.47
2019-04-03T23:49:07.613Z,88.04
2019-04-03T23:51:37.799Z,88.34
2019-04-03T23:54:07.959Z,88.97
2019-04-03T23:56:38.886Z,88.98
2019-04-03T23:59:12.799Z,89.27
